Terminal Aerodrome Forecast
Issued by NWS

Home | Current Version | Previous Version | Graphics & Text | Print | Product List | Glossary On
Versions: 1 2 3 4 5 6 7 8 9 10 11 12 13 14 15 16 17 18 19 20 21 22 23 24 25 26 27 28 29 30 31 32 33 34 35 36 37
904
FTUS43 KGRB 212331
TAFATW
TAF
KATW 212331Z 2200/2224 20008KT P6SM SCT020 BKN120
     FM220200 23006KT P6SM SHRA SCT035 OVC080
      TEMPO 2202/2206 3SM -TSRA BKN025CB
     FM220600 27008KT P6SM -SHRA SCT018 OVC035
     FM221100 29009KT P6SM BKN017
     FM221300 31011G17KT P6SM SCT030=

USA.gov is the U.S. government's official web portal to all federal, state and local government web resources and services.